RYR7339 EYKA-ESGG
Flight info
| Callsign | RYR7339 |
|---|---|
| Flight time | 1h 16m |
| Altitude | 36000 |
| Route | UGNIS DCT TIRIN DCT VEDEN DCT NILEN L617 ARQUS |
| Aircraft | B38M/M-SDE1FGHILORVWXY/HB1 |
Departure
| Time | 2026-04-20 16:04 |
|---|---|
| Airport | Kaunas International Airport (EYKA) |
Arrival
| Time | 2026-04-20 17:20 |
|---|---|
| Airport | Göteborg Landvetter Airport (ESGG) |
| Time | Latitude | Longitude | Altitude | Speed | Heading |
|---|---|---|---|---|---|
| 2026-04-20 15:50 | 54.96595 | 24.07405 | 253 ft | 0 kts | 109° |
| 2026-04-20 15:58 | 54.96587 | 24.07443 | 251 ft | 6 kts | 110° |
| 2026-04-20 15:58 | 54.96551 | 24.07486 | 251 ft | 7 kts | 176° |
| 2026-04-20 15:59 | 54.96508 | 24.07440 | 250 ft | 9 kts | 251° |
| 2026-04-20 15:59 | 54.96485 | 24.07340 | 250 ft | 10 kts | 212° |
| 2026-04-20 15:59 | 54.96412 | 24.07346 | 249 ft | 12 kts | 173° |
| 2026-04-20 15:59 | 54.96338 | 24.07275 | 248 ft | 14 kts | 251° |
| 2026-04-20 16:00 | 54.96325 | 24.07092 | 248 ft | 16 kts | 264° |
| 2026-04-20 16:00 | 54.96315 | 24.06901 | 250 ft | 16 kts | 265° |
| 2026-04-20 16:00 | 54.96304 | 24.06690 | 249 ft | 19 kts | 265° |
| 2026-04-20 16:00 | 54.96293 | 24.06451 | 248 ft | 21 kts | 265° |
| 2026-04-20 16:01 | 54.96266 | 24.06206 | 245 ft | 20 kts | 241° |
| 2026-04-20 16:01 | 54.96219 | 24.06037 | 243 ft | 14 kts | 269° |
| 2026-04-20 16:01 | 54.96260 | 24.05974 | 241 ft | 8 kts | 19° |
| 2026-04-20 16:01 | 54.96278 | 24.06038 | 242 ft | 6 kts | 85° |
| 2026-04-20 16:02 | 54.96276 | 24.06120 | 244 ft | 8 kts | 85° |
| 2026-04-20 16:02 | 54.96277 | 24.06127 | 244 ft | 0 kts | 85° |
| 2026-04-20 16:03 | 54.96281 | 24.06228 | 245 ft | 32 kts | 85° |
| 2026-04-20 16:03 | 54.96328 | 24.07139 | 248 ft | 117 kts | 85° |
| 2026-04-20 16:04 | 54.96419 | 24.08958 | 309 ft | 179 kts | 84° |
| 2026-04-20 16:04 | 54.96526 | 24.11308 | 786 ft | 207 kts | 81° |
| 2026-04-20 16:04 | 54.96673 | 24.13739 | 1578 ft | 184 kts | 80° |
| 2026-04-20 16:04 | 54.96813 | 24.15928 | 1884 ft | 187 kts | 81° |
| 2026-04-20 16:05 | 54.96945 | 24.18293 | 2099 ft | 206 kts | 82° |
| 2026-04-20 16:05 | 54.97070 | 24.20896 | 2128 ft | 225 kts | 82° |
| 2026-04-20 16:05 | 54.97190 | 24.23699 | 2156 ft | 237 kts | 83° |
| 2026-04-20 16:05 | 54.97468 | 24.26532 | 2133 ft | 238 kts | 64° |
| 2026-04-20 16:06 | 54.98469 | 24.28763 | 2143 ft | 237 kts | 35° |
| 2026-04-20 16:06 | 54.99971 | 24.29882 | 2205 ft | 238 kts | 10° |
| 2026-04-20 16:06 | 55.01645 | 24.29903 | 2655 ft | 243 kts | 359° |
| 2026-04-20 16:06 | 55.03333 | 24.29734 | 3561 ft | 245 kts | 359° |
| 2026-04-20 16:07 | 55.05047 | 24.29537 | 4386 ft | 248 kts | 358° |
| 2026-04-20 16:07 | 55.06775 | 24.29321 | 5246 ft | 250 kts | 358° |
| 2026-04-20 16:07 | 55.08521 | 24.29091 | 6108 ft | 252 kts | 358° |
| 2026-04-20 16:07 | 55.10284 | 24.28848 | 6900 ft | 256 kts | 358° |
| 2026-04-20 16:08 | 55.12054 | 24.28361 | 7632 ft | 264 kts | 342° |
| 2026-04-20 16:08 | 55.13634 | 24.26670 | 8369 ft | 271 kts | 325° |
| 2026-04-20 16:08 | 55.15149 | 24.24642 | 9053 ft | 277 kts | 326° |
| 2026-04-20 16:08 | 55.16688 | 24.22575 | 9823 ft | 281 kts | 326° |
| 2026-04-20 16:09 | 55.18248 | 24.20456 | 10442 ft | 289 kts | 326° |
| 2026-04-20 16:09 | 55.19880 | 24.18221 | 10739 ft | 307 kts | 325° |
| 2026-04-20 16:09 | 55.21605 | 24.15844 | 11099 ft | 323 kts | 325° |
| 2026-04-20 16:09 | 55.23384 | 24.13385 | 11760 ft | 326 kts | 325° |
| 2026-04-20 16:10 | 55.25174 | 24.10903 | 12479 ft | 331 kts | 326° |
| 2026-04-20 16:10 | 55.26990 | 24.08382 | 13205 ft | 335 kts | 326° |
| 2026-04-20 16:10 | 55.28819 | 24.05841 | 13958 ft | 338 kts | 326° |
| 2026-04-20 16:10 | 55.30679 | 24.03253 | 14636 ft | 342 kts | 326° |
| 2026-04-20 16:11 | 55.32549 | 24.00646 | 15338 ft | 345 kts | 326° |
| 2026-04-20 16:11 | 55.34444 | 23.98003 | 16050 ft | 349 kts | 326° |
| 2026-04-20 16:11 | 55.36329 | 23.95370 | 16736 ft | 353 kts | 326° |
| 2026-04-20 16:11 | 55.38285 | 23.92635 | 17408 ft | 356 kts | 327° |
| 2026-04-20 16:12 | 55.40235 | 23.89904 | 18068 ft | 360 kts | 327° |
| 2026-04-20 16:12 | 55.42180 | 23.87178 | 18670 ft | 364 kts | 327° |
| 2026-04-20 16:12 | 55.44169 | 23.84385 | 19250 ft | 367 kts | 327° |
| 2026-04-20 16:12 | 55.46019 | 23.81132 | 19808 ft | 379 kts | 309° |
| 2026-04-20 16:13 | 55.47207 | 23.77029 | 20497 ft | 385 kts | 295° |
| 2026-04-20 16:13 | 55.48203 | 23.72538 | 20947 ft | 392 kts | 295° |
| 2026-04-20 16:13 | 55.49169 | 23.68101 | 21533 ft | 393 kts | 295° |
| 2026-04-20 16:13 | 55.50153 | 23.63502 | 22049 ft | 398 kts | 295° |
| 2026-04-20 16:14 | 55.51124 | 23.58918 | 22598 ft | 400 kts | 295° |
| 2026-04-20 16:14 | 55.52082 | 23.54362 | 23110 ft | 403 kts | 294° |
| 2026-04-20 16:14 | 55.53060 | 23.49697 | 23631 ft | 406 kts | 294° |
| 2026-04-20 16:14 | 55.54041 | 23.45000 | 24053 ft | 409 kts | 294° |
| 2026-04-20 16:15 | 55.55026 | 23.40272 | 24485 ft | 411 kts | 294° |
| 2026-04-20 16:15 | 55.56015 | 23.35519 | 24911 ft | 414 kts | 294° |
| 2026-04-20 16:15 | 55.57009 | 23.30731 | 25325 ft | 416 kts | 294° |
| 2026-04-20 16:15 | 55.58006 | 23.25913 | 25733 ft | 419 kts | 293° |
| 2026-04-20 16:16 | 55.59008 | 23.21059 | 26127 ft | 421 kts | 293° |
| 2026-04-20 16:16 | 55.60013 | 23.16180 | 26534 ft | 424 kts | 293° |
| 2026-04-20 16:16 | 55.61021 | 23.11277 | 26976 ft | 424 kts | 293° |
| 2026-04-20 16:16 | 55.62024 | 23.06381 | 27495 ft | 423 kts | 293° |
| 2026-04-20 16:17 | 55.63022 | 23.01498 | 27988 ft | 422 kts | 293° |
| 2026-04-20 16:17 | 55.64018 | 22.96618 | 28486 ft | 421 kts | 293° |
| 2026-04-20 16:17 | 55.65010 | 22.91744 | 28916 ft | 421 kts | 293° |
| 2026-04-20 16:17 | 55.66003 | 22.86852 | 29262 ft | 423 kts | 293° |
| 2026-04-20 16:18 | 55.66995 | 22.81952 | 29708 ft | 422 kts | 293° |
| 2026-04-20 16:18 | 55.67983 | 22.77059 | 30170 ft | 422 kts | 292° |
| 2026-04-20 16:18 | 55.68970 | 22.72163 | 30527 ft | 421 kts | 292° |
| 2026-04-20 16:18 | 55.69951 | 22.67280 | 30870 ft | 421 kts | 292° |
| 2026-04-20 16:19 | 55.70930 | 22.62397 | 31217 ft | 420 kts | 292° |
| 2026-04-20 16:19 | 55.71905 | 22.57520 | 31540 ft | 419 kts | 292° |
| 2026-04-20 16:19 | 55.72878 | 22.52642 | 31876 ft | 419 kts | 292° |
| 2026-04-20 16:19 | 55.73847 | 22.47775 | 32192 ft | 418 kts | 292° |
| 2026-04-20 16:20 | 55.74813 | 22.42904 | 32501 ft | 418 kts | 292° |
| 2026-04-20 16:20 | 55.75776 | 22.38042 | 32811 ft | 417 kts | 292° |
| 2026-04-20 16:20 | 55.76734 | 22.33191 | 33105 ft | 417 kts | 292° |
| 2026-04-20 16:20 | 55.77692 | 22.28328 | 33388 ft | 416 kts | 292° |
| 2026-04-20 16:21 | 55.78646 | 22.23477 | 33668 ft | 416 kts | 292° |
| 2026-04-20 16:21 | 55.79597 | 22.18625 | 33939 ft | 415 kts | 292° |
| 2026-04-20 16:21 | 55.80544 | 22.13780 | 34195 ft | 415 kts | 292° |
| 2026-04-20 16:21 | 55.81489 | 22.08937 | 34405 ft | 415 kts | 292° |
| 2026-04-20 16:22 | 55.82432 | 22.04090 | 34595 ft | 414 kts | 292° |
| 2026-04-20 16:22 | 55.83371 | 21.99253 | 34798 ft | 414 kts | 292° |
| 2026-04-20 16:22 | 55.84308 | 21.94412 | 34982 ft | 414 kts | 292° |
| 2026-04-20 16:22 | 55.85242 | 21.89573 | 35150 ft | 413 kts | 292° |
| 2026-04-20 16:23 | 55.86176 | 21.84724 | 35288 ft | 414 kts | 292° |
| 2026-04-20 16:23 | 55.87109 | 21.79871 | 35462 ft | 414 kts | 292° |
| 2026-04-20 16:23 | 55.88038 | 21.75020 | 35625 ft | 414 kts | 292° |
| 2026-04-20 16:23 | 55.88966 | 21.70168 | 35803 ft | 414 kts | 292° |
| 2026-04-20 16:24 | 55.89891 | 21.65317 | 35966 ft | 413 kts | 292° |
| 2026-04-20 16:24 | 55.90814 | 21.60464 | 36129 ft | 413 kts | 292° |
| 2026-04-20 16:24 | 55.92655 | 21.50749 | 36193 ft | 414 kts | 292° |
| 2026-04-20 16:25 | 55.94481 | 21.41063 | 36191 ft | 411 kts | 292° |
| 2026-04-20 16:25 | 55.96300 | 21.31362 | 36185 ft | 413 kts | 292° |
| 2026-04-20 16:26 | 55.98114 | 21.21638 | 36183 ft | 413 kts | 291° |
| 2026-04-20 16:26 | 55.99926 | 21.11881 | 36190 ft | 416 kts | 291° |
| 2026-04-20 16:27 | 56.01753 | 21.01993 | 36187 ft | 422 kts | 291° |
| 2026-04-20 16:27 | 56.03588 | 20.92016 | 36193 ft | 428 kts | 291° |
| 2026-04-20 16:28 | 56.05457 | 20.81814 | 36188 ft | 435 kts | 291° |
| 2026-04-20 16:28 | 56.07533 | 20.71604 | 36154 ft | 438 kts | 300° |
| 2026-04-20 16:29 | 56.08842 | 20.66668 | 36281 ft | 439 kts | 298° |
| 2026-04-20 16:29 | 56.10119 | 20.61675 | 36280 ft | 443 kts | 298° |
| 2026-04-20 16:29 | 56.12277 | 20.53253 | 36210 ft | 451 kts | 298° |
| 2026-04-20 16:30 | 56.14906 | 20.42974 | 36227 ft | 457 kts | 298° |
| 2026-04-20 16:30 | 56.17568 | 20.32516 | 36220 ft | 464 kts | 298° |
| 2026-04-20 16:31 | 56.20258 | 20.21897 | 36235 ft | 471 kts | 297° |
| 2026-04-20 16:31 | 56.22979 | 20.11108 | 36235 ft | 477 kts | 297° |
| 2026-04-20 16:32 | 56.25722 | 20.00175 | 36246 ft | 480 kts | 297° |
| 2026-04-20 16:32 | 56.28458 | 19.89215 | 36248 ft | 480 kts | 297° |
| 2026-04-20 16:33 | 56.31183 | 19.78246 | 36260 ft | 480 kts | 297° |
| 2026-04-20 16:33 | 56.33903 | 19.67240 | 36259 ft | 481 kts | 297° |
| 2026-04-20 16:34 | 56.36616 | 19.56213 | 36264 ft | 481 kts | 297° |
| 2026-04-20 16:34 | 56.39316 | 19.45177 | 36271 ft | 481 kts | 297° |
| 2026-04-20 16:35 | 56.42013 | 19.34099 | 36256 ft | 482 kts | 297° |
| 2026-04-20 16:35 | 56.44703 | 19.22998 | 36283 ft | 483 kts | 297° |
| 2026-04-20 16:36 | 56.47386 | 19.11867 | 36281 ft | 483 kts | 297° |
| 2026-04-20 16:36 | 56.50058 | 19.00729 | 36289 ft | 483 kts | 297° |
| 2026-04-20 16:37 | 56.52683 | 18.89627 | 36285 ft | 484 kts | 293° |
| 2026-04-20 16:37 | 56.53445 | 18.83687 | 36191 ft | 488 kts | 276° |
| 2026-04-20 16:37 | 56.53622 | 18.77578 | 36424 ft | 484 kts | 277° |
| 2026-04-20 16:38 | 56.54038 | 18.71499 | 36263 ft | 485 kts | 279° |
| 2026-04-20 16:38 | 56.54425 | 18.65426 | 36396 ft | 487 kts | 278° |
| 2026-04-20 16:38 | 56.54784 | 18.59295 | 36290 ft | 490 kts | 278° |
| 2026-04-20 16:38 | 56.55127 | 18.53150 | 36289 ft | 490 kts | 278° |
| 2026-04-20 16:39 | 56.55800 | 18.40832 | 36305 ft | 491 kts | 278° |
| 2026-04-20 16:39 | 56.56462 | 18.28519 | 36302 ft | 490 kts | 278° |
| 2026-04-20 16:40 | 56.57111 | 18.16215 | 36299 ft | 490 kts | 278° |
| 2026-04-20 16:40 | 56.57747 | 18.03921 | 36306 ft | 490 kts | 277° |
| 2026-04-20 16:41 | 56.58371 | 17.91622 | 36308 ft | 490 kts | 277° |
| 2026-04-20 16:41 | 56.58983 | 17.79310 | 36307 ft | 490 kts | 277° |
| 2026-04-20 16:42 | 56.59584 | 17.66994 | 36308 ft | 490 kts | 277° |
| 2026-04-20 16:42 | 56.60171 | 17.54683 | 36311 ft | 489 kts | 277° |
| 2026-04-20 16:43 | 56.60745 | 17.42384 | 36317 ft | 489 kts | 277° |
| 2026-04-20 16:43 | 56.61308 | 17.30078 | 36320 ft | 489 kts | 277° |
| 2026-04-20 16:44 | 56.61859 | 17.17759 | 36309 ft | 489 kts | 277° |
| 2026-04-20 16:44 | 56.62394 | 17.05509 | 36309 ft | 484 kts | 277° |
| 2026-04-20 16:45 | 56.62915 | 16.93339 | 36317 ft | 484 kts | 277° |
| 2026-04-20 16:45 | 56.63423 | 16.81150 | 36331 ft | 484 kts | 276° |
| 2026-04-20 16:46 | 56.63917 | 16.69033 | 36330 ft | 484 kts | 276° |
| 2026-04-20 16:46 | 56.64403 | 16.56829 | 36344 ft | 484 kts | 276° |
| 2026-04-20 16:47 | 56.64876 | 16.44634 | 36320 ft | 484 kts | 276° |
| 2026-04-20 16:47 | 56.65336 | 16.32441 | 36347 ft | 483 kts | 276° |
| 2026-04-20 16:48 | 56.65785 | 16.20256 | 36349 ft | 483 kts | 276° |
| 2026-04-20 16:48 | 56.66221 | 16.08071 | 36343 ft | 483 kts | 276° |
| 2026-04-20 16:49 | 56.66646 | 15.95878 | 36341 ft | 483 kts | 276° |
| 2026-04-20 16:49 | 56.67059 | 15.83677 | 36320 ft | 483 kts | 275° |
| 2026-04-20 16:50 | 56.67460 | 15.71471 | 36332 ft | 484 kts | 275° |
| 2026-04-20 16:50 | 56.67850 | 15.59264 | 36330 ft | 483 kts | 275° |
| 2026-04-20 16:51 | 56.68227 | 15.47055 | 36336 ft | 483 kts | 275° |
| 2026-04-20 16:51 | 56.68591 | 15.34875 | 36334 ft | 482 kts | 275° |
| 2026-04-20 16:52 | 56.68944 | 15.22698 | 36321 ft | 482 kts | 275° |
| 2026-04-20 16:52 | 56.69281 | 15.10601 | 35640 ft | 477 kts | 275° |
| 2026-04-20 16:53 | 56.69447 | 15.04543 | 34763 ft | 481 kts | 275° |
| 2026-04-20 16:53 | 56.69606 | 14.98574 | 34349 ft | 478 kts | 275° |
| 2026-04-20 16:53 | 56.69765 | 14.92522 | 34030 ft | 476 kts | 274° |
| 2026-04-20 16:53 | 56.69919 | 14.86526 | 33357 ft | 474 kts | 274° |
| 2026-04-20 16:54 | 56.70072 | 14.80511 | 32435 ft | 478 kts | 274° |
| 2026-04-20 16:54 | 56.70223 | 14.74427 | 31493 ft | 483 kts | 274° |
| 2026-04-20 16:54 | 56.70372 | 14.68288 | 30558 ft | 488 kts | 274° |
| 2026-04-20 16:54 | 56.70519 | 14.62129 | 29495 ft | 484 kts | 274° |
| 2026-04-20 16:55 | 56.70659 | 14.56059 | 28504 ft | 476 kts | 274° |
| 2026-04-20 16:55 | 56.70796 | 14.50083 | 27541 ft | 470 kts | 274° |
| 2026-04-20 16:55 | 56.70928 | 14.44192 | 26630 ft | 463 kts | 274° |
| 2026-04-20 16:55 | 56.71054 | 14.38378 | 25752 ft | 456 kts | 274° |
| 2026-04-20 16:56 | 56.71177 | 14.32649 | 24913 ft | 450 kts | 275° |
| 2026-04-20 16:56 | 56.71296 | 14.27000 | 24108 ft | 444 kts | 275° |
| 2026-04-20 16:56 | 56.71410 | 14.21424 | 23216 ft | 438 kts | 275° |
| 2026-04-20 16:56 | 56.71521 | 14.15922 | 22320 ft | 432 kts | 275° |
| 2026-04-20 16:57 | 56.71628 | 14.10488 | 21448 ft | 426 kts | 274° |
| 2026-04-20 16:57 | 56.71731 | 14.05134 | 20663 ft | 420 kts | 274° |
| 2026-04-20 16:57 | 56.71828 | 13.99920 | 20320 ft | 403 kts | 274° |
| 2026-04-20 16:57 | 56.71920 | 13.94893 | 19875 ft | 391 kts | 274° |
| 2026-04-20 16:58 | 56.72008 | 13.90007 | 19361 ft | 382 kts | 274° |
| 2026-04-20 16:58 | 56.72093 | 13.85247 | 19012 ft | 370 kts | 274° |
| 2026-04-20 16:58 | 56.72173 | 13.80650 | 18672 ft | 358 kts | 274° |
| 2026-04-20 16:58 | 56.72251 | 13.76178 | 18288 ft | 347 kts | 274° |
| 2026-04-20 16:59 | 56.72323 | 13.71855 | 17927 ft | 337 kts | 275° |
| 2026-04-20 16:59 | 56.72392 | 13.67664 | 17580 ft | 327 kts | 275° |
| 2026-04-20 16:59 | 56.72460 | 13.63530 | 17084 ft | 330 kts | 274° |
| 2026-04-20 16:59 | 56.72528 | 13.59323 | 16672 ft | 333 kts | 274° |
| 2026-04-20 17:00 | 56.72659 | 13.50860 | 15957 ft | 335 kts | 274° |
| 2026-04-20 17:00 | 56.72722 | 13.46630 | 15641 ft | 334 kts | 274° |
| 2026-04-20 17:00 | 56.72783 | 13.42418 | 15347 ft | 332 kts | 274° |
| 2026-04-20 17:01 | 56.72849 | 13.38230 | 15032 ft | 330 kts | 277° |
| 2026-04-20 17:01 | 56.73356 | 13.34250 | 14974 ft | 320 kts | 300° |
| 2026-04-20 17:01 | 56.74583 | 13.30958 | 14974 ft | 311 kts | 321° |
| 2026-04-20 17:01 | 56.76300 | 13.28677 | 14982 ft | 303 kts | 338° |
| 2026-04-20 17:02 | 56.78195 | 13.27023 | 14982 ft | 303 kts | 338° |
| 2026-04-20 17:02 | 56.80006 | 13.24991 | 14984 ft | 307 kts | 332° |
| 2026-04-20 17:02 | 56.81806 | 13.22901 | 14704 ft | 305 kts | 333° |
| 2026-04-20 17:02 | 56.83611 | 13.20884 | 14337 ft | 304 kts | 334° |
| 2026-04-20 17:03 | 56.85427 | 13.18894 | 13968 ft | 305 kts | 334° |
| 2026-04-20 17:03 | 56.87246 | 13.16920 | 13651 ft | 302 kts | 335° |
| 2026-04-20 17:03 | 56.89038 | 13.14988 | 13463 ft | 296 kts | 335° |
| 2026-04-20 17:03 | 56.90821 | 13.13073 | 13357 ft | 298 kts | 335° |
| 2026-04-20 17:04 | 56.92611 | 13.11155 | 13219 ft | 298 kts | 335° |
| 2026-04-20 17:04 | 56.94397 | 13.09238 | 13084 ft | 298 kts | 335° |
| 2026-04-20 17:04 | 56.96181 | 13.07321 | 12939 ft | 297 kts | 335° |
| 2026-04-20 17:04 | 56.97963 | 13.05404 | 12788 ft | 296 kts | 335° |
| 2026-04-20 17:05 | 56.99712 | 13.03520 | 12635 ft | 295 kts | 335° |
| 2026-04-20 17:05 | 57.01481 | 13.01614 | 12510 ft | 295 kts | 335° |
| 2026-04-20 17:05 | 57.03253 | 12.99701 | 12380 ft | 295 kts | 335° |
| 2026-04-20 17:05 | 57.05020 | 12.97791 | 12239 ft | 294 kts | 335° |
| 2026-04-20 17:06 | 57.06781 | 12.95887 | 12086 ft | 293 kts | 335° |
| 2026-04-20 17:06 | 57.08516 | 12.93911 | 11995 ft | 296 kts | 326° |
| 2026-04-20 17:06 | 57.09843 | 12.90986 | 11959 ft | 305 kts | 301° |
| 2026-04-20 17:06 | 57.10650 | 12.87332 | 12016 ft | 310 kts | 295° |
| 2026-04-20 17:07 | 57.11423 | 12.83629 | 11991 ft | 310 kts | 295° |
| 2026-04-20 17:07 | 57.12189 | 12.79912 | 11907 ft | 312 kts | 295° |
| 2026-04-20 17:07 | 57.12955 | 12.76155 | 11461 ft | 315 kts | 294° |
| 2026-04-20 17:07 | 57.13724 | 12.72351 | 11005 ft | 318 kts | 294° |
| 2026-04-20 17:08 | 57.14490 | 12.68538 | 10689 ft | 316 kts | 294° |
| 2026-04-20 17:08 | 57.15250 | 12.64749 | 10189 ft | 315 kts | 294° |
| 2026-04-20 17:08 | 57.16006 | 12.60968 | 9536 ft | 314 kts | 294° |
| 2026-04-20 17:08 | 57.16760 | 12.57199 | 8912 ft | 313 kts | 294° |
| 2026-04-20 17:09 | 57.17511 | 12.53442 | 8282 ft | 312 kts | 294° |
| 2026-04-20 17:09 | 57.18600 | 12.50123 | 7854 ft | 296 kts | 320° |
| 2026-04-20 17:09 | 57.20151 | 12.47812 | 7616 ft | 280 kts | 325° |
| 2026-04-20 17:09 | 57.21631 | 12.45590 | 7379 ft | 270 kts | 324° |
| 2026-04-20 17:10 | 57.23072 | 12.43414 | 7167 ft | 266 kts | 325° |
| 2026-04-20 17:10 | 57.24493 | 12.41271 | 6940 ft | 262 kts | 325° |
| 2026-04-20 17:10 | 57.25895 | 12.39160 | 6707 ft | 258 kts | 325° |
| 2026-04-20 17:10 | 57.27280 | 12.37073 | 6480 ft | 256 kts | 325° |
| 2026-04-20 17:11 | 57.28682 | 12.34959 | 6268 ft | 263 kts | 324° |
| 2026-04-20 17:11 | 57.30108 | 12.32807 | 6030 ft | 265 kts | 324° |
| 2026-04-20 17:11 | 57.31536 | 12.30648 | 5811 ft | 265 kts | 324° |
| 2026-04-20 17:11 | 57.32962 | 12.28490 | 5568 ft | 264 kts | 324° |
| 2026-04-20 17:12 | 57.34374 | 12.26352 | 5345 ft | 263 kts | 324° |
| 2026-04-20 17:12 | 57.35786 | 12.24210 | 5110 ft | 260 kts | 324° |
| 2026-04-20 17:12 | 57.37167 | 12.22114 | 5002 ft | 252 kts | 325° |
| 2026-04-20 17:12 | 57.38487 | 12.20107 | 5011 ft | 239 kts | 325° |
| 2026-04-20 17:13 | 57.39745 | 12.18194 | 4923 ft | 230 kts | 325° |
| 2026-04-20 17:13 | 57.40973 | 12.16326 | 4697 ft | 226 kts | 325° |
| 2026-04-20 17:13 | 57.42174 | 12.14498 | 4554 ft | 217 kts | 326° |
| 2026-04-20 17:13 | 57.43427 | 12.13362 | 4388 ft | 190 kts | 355° |
| 2026-04-20 17:14 | 57.44663 | 12.13077 | 4315 ft | 167 kts | 359° |
| 2026-04-20 17:14 | 57.45747 | 12.12866 | 4233 ft | 150 kts | 0° |
| 2026-04-20 17:14 | 57.46757 | 12.12687 | 3942 ft | 144 kts | 0° |
| 2026-04-20 17:14 | 57.47755 | 12.12524 | 3567 ft | 143 kts | 1° |
| 2026-04-20 17:15 | 57.48725 | 12.12532 | 3179 ft | 137 kts | 20° |
| 2026-04-20 17:15 | 57.49577 | 12.13141 | 3030 ft | 129 kts | 27° |
| 2026-04-20 17:15 | 57.50416 | 12.13824 | 3048 ft | 134 kts | 26° |
| 2026-04-20 17:15 | 57.51288 | 12.14501 | 3076 ft | 137 kts | 27° |
| 2026-04-20 17:16 | 57.52155 | 12.15226 | 3039 ft | 137 kts | 28° |
| 2026-04-20 17:16 | 57.53017 | 12.15976 | 3036 ft | 137 kts | 29° |
| 2026-04-20 17:16 | 57.53874 | 12.16745 | 2876 ft | 135 kts | 29° |
| 2026-04-20 17:16 | 57.54431 | 12.17247 | 2777 ft | 134 kts | 29° |
| 2026-04-20 17:17 | 57.55265 | 12.17996 | 2613 ft | 133 kts | 29° |
| 2026-04-20 17:17 | 57.56097 | 12.18747 | 2463 ft | 133 kts | 30° |
| 2026-04-20 17:17 | 57.56932 | 12.19502 | 2286 ft | 133 kts | 29° |
| 2026-04-20 17:17 | 57.58041 | 12.20506 | 2058 ft | 134 kts | 30° |
| 2026-04-20 17:18 | 57.58607 | 12.21018 | 1941 ft | 134 kts | 30° |
| 2026-04-20 17:18 | 57.59446 | 12.21775 | 1764 ft | 134 kts | 28° |
| 2026-04-20 17:18 | 57.60285 | 12.22536 | 1559 ft | 133 kts | 29° |
| 2026-04-20 17:18 | 57.61120 | 12.23296 | 1384 ft | 134 kts | 29° |
| 2026-04-20 17:19 | 57.61960 | 12.24056 | 1176 ft | 134 kts | 28° |
| 2026-04-20 17:19 | 57.62792 | 12.24811 | 1011 ft | 132 kts | 27° |
| 2026-04-20 17:19 | 57.63615 | 12.25534 | 840 ft | 131 kts | 27° |
| 2026-04-20 17:19 | 57.64436 | 12.26279 | 668 ft | 131 kts | 27° |
| 2026-04-20 17:20 | 57.65270 | 12.27060 | 540 ft | 145 kts | 27° |
| 2026-04-20 17:20 | 57.66150 | 12.27878 | 518 ft | 126 kts | 25° |
| 2026-04-20 17:20 | 57.66704 | 12.28360 | 527 ft | 55 kts | 26° |
| 2026-04-20 17:20 | 57.66973 | 12.28605 | 530 ft | 42 kts | 26° |
| 2026-04-20 17:21 | 57.67226 | 12.28835 | 534 ft | 39 kts | 26° |
| 2026-04-20 17:21 | 57.67404 | 12.29001 | 533 ft | 16 kts | 33° |
| 2026-04-20 17:21 | 57.67455 | 12.29149 | 533 ft | 8 kts | 77° |
| 2026-04-20 17:21 | 57.67458 | 12.29188 | 534 ft | 0 kts | 85° |
| 2026-04-20 17:22 | 57.67458 | 12.29189 | 534 ft | 0 kts | 85° |
| 2026-04-20 17:22 | 57.67459 | 12.29207 | 534 ft | 5 kts | 85° |
| 2026-04-20 17:22 | 57.67448 | 12.29314 | 535 ft | 11 kts | 128° |
| 2026-04-20 17:23 | 57.67358 | 12.29305 | 534 ft | 20 kts | 205° |
| 2026-04-20 17:23 | 57.67235 | 12.29191 | 533 ft | 16 kts | 205° |
| 2026-04-20 17:23 | 57.67142 | 12.29108 | 532 ft | 12 kts | 206° |
| 2026-04-20 17:23 | 57.67081 | 12.29052 | 531 ft | 10 kts | 206° |
| 2026-04-20 17:24 | 57.67009 | 12.28988 | 530 ft | 13 kts | 205° |
| 2026-04-20 17:24 | 57.66912 | 12.28899 | 529 ft | 12 kts | 206° |
| 2026-04-20 17:24 | 57.66846 | 12.28871 | 528 ft | 10 kts | 154° |
| 2026-04-20 17:24 | 57.66829 | 12.28898 | 528 ft | 2 kts | 129° |
| 2026-04-20 17:25 | 57.66816 | 12.28933 | 528 ft | 6 kts | 117° |
| 2026-04-20 17:25 | 57.66786 | 12.29052 | 528 ft | 9 kts | 116° |
| 2026-04-20 17:25 | 57.66769 | 12.29116 | 528 ft | 4 kts | 117° |
| 2026-04-20 17:25 | 57.66752 | 12.29175 | 528 ft | 6 kts | 118° |
| 2026-04-20 17:26 | 57.66739 | 12.29226 | 528 ft | 4 kts | 115° |
| 2026-04-20 17:26 | 57.66732 | 12.29256 | 528 ft | 0 kts | 115° |
| 2026-04-20 17:26 | 57.66732 | 12.29257 | 528 ft | 0 kts | 115° |